createdAt,value
2018-12-14T00:01:46.791Z,59.70
2018-12-14T00:04:16.445Z,59.70
2018-12-14T00:06:46.120Z,59.70
2018-12-14T00:09:13.739Z,59.60
2018-12-14T00:11:45.550Z,59.60
2018-12-14T00:14:11.022Z,59.50
2018-12-14T00:16:38.718Z,59.40
2018-12-14T00:19:06.442Z,59.30
2018-12-14T00:21:34.125Z,59.30
2018-12-14T00:24:01.896Z,59.20
2018-12-14T00:26:29.722Z,59.20
2018-12-14T00:28:57.331Z,59.30
2018-12-14T00:31:24.959Z,59.10
2018-12-14T00:33:52.634Z,59.00
2018-12-14T00:36:20.297Z,58.90
2018-12-14T00:38:47.991Z,58.70
2018-12-14T00:41:15.671Z,58.70
2018-12-14T00:43:43.363Z,58.80
2018-12-14T00:46:11.050Z,58.80
2018-12-14T00:48:38.670Z,58.90
2018-12-14T00:51:06.310Z,59.10
2018-12-14T00:53:33.974Z,59.10
2018-12-14T00:56:01.578Z,59.00
2018-12-14T00:58:29.202Z,58.80
2018-12-14T01:00:56.790Z,58.80
2018-12-14T01:03:24.370Z,58.90
2018-12-14T01:05:51.972Z,58.90
2018-12-14T01:08:19.618Z,59.10
2018-12-14T01:10:47.198Z,59.00
2018-12-14T01:13:14.834Z,59.70
2018-12-14T01:15:42.438Z,59.10
2018-12-14T01:18:10.081Z,59.00
2018-12-14T01:20:37.770Z,59.10
2018-12-14T01:23:05.431Z,59.00
2018-12-14T01:25:33.083Z,59.20
2018-12-14T01:28:00.667Z,59.10
2018-12-14T01:30:28.279Z,59.20
2018-12-14T01:32:55.912Z,59.20
2018-12-14T01:35:23.499Z,59.20
2018-12-14T01:37:52.111Z,59.20
2018-12-14T01:40:19.735Z,59.30
2018-12-14T01:42:47.371Z,59.10
2018-12-14T01:45:14.987Z,59.00
2018-12-14T01:47:42.647Z,59.00
2018-12-14T01:50:11.289Z,58.90
2018-12-14T01:52:40.239Z,58.90
2018-12-14T01:55:08.057Z,58.90
2018-12-14T01:57:35.901Z,59.10
2018-12-14T02:00:03.825Z,59.20
2018-12-14T02:02:31.433Z,59.20
2018-12-14T02:04:59.058Z,59.10
2018-12-14T02:07:26.717Z,59.30
2018-12-14T02:09:54.375Z,59.30
2018-12-14T02:12:22.059Z,59.40
2018-12-14T02:14:49.754Z,60.00
2018-12-14T02:17:17.338Z,59.30
2018-12-14T02:19:44.990Z,59.30
2018-12-14T02:22:12.610Z,59.30
2018-12-14T02:24:40.243Z,59.30
2018-12-14T02:27:07.842Z,59.20
2018-12-14T02:29:35.442Z,59.40
2018-12-14T02:32:03.298Z,59.30
2018-12-14T02:34:31.029Z,59.60
2018-12-14T02:36:58.645Z,59.60
2018-12-14T02:39:26.258Z,59.70
2018-12-14T02:41:53.888Z,59.40
2018-12-14T02:44:21.465Z,59.40
2018-12-14T02:46:49.132Z,59.40
2018-12-14T02:49:16.772Z,59.40
2018-12-14T02:51:44.441Z,59.20
2018-12-14T02:54:12.077Z,59.50
2018-12-14T02:56:39.742Z,59.60
2018-12-14T02:59:07.783Z,59.70
2018-12-14T03:01:35.441Z,59.60
2018-12-14T03:04:03.070Z,59.40
2018-12-14T03:06:30.725Z,59.40
2018-12-14T03:08:58.379Z,59.50
2018-12-14T03:11:26.098Z,59.20
2018-12-14T03:13:53.785Z,59.40
2018-12-14T03:16:21.559Z,59.40
2018-12-14T03:18:49.171Z,59.30
2018-12-14T03:21:16.922Z,59.20
2018-12-14T03:23:44.607Z,59.10
2018-12-14T03:26:12.249Z,58.90
2018-12-14T03:28:39.863Z,58.90
2018-12-14T03:31:07.431Z,59.10
2018-12-14T03:33:35.436Z,59.10
2018-12-14T03:36:03.109Z,59.10
2018-12-14T03:38:30.803Z,59.00
2018-12-14T03:40:58.526Z,58.90
2018-12-14T03:43:26.135Z,58.80
2018-12-14T03:45:53.799Z,58.80
2018-12-14T03:48:21.425Z,58.80
2018-12-14T03:50:49.215Z,59.00
2018-12-14T03:53:17.067Z,59.20
2018-12-14T03:55:44.901Z,59.20
2018-12-14T03:58:12.738Z,59.10
2018-12-14T04:00:41.168Z,59.00
2018-12-14T04:03:10.767Z,58.80
2018-12-14T04:05:44.193Z,58.70
2018-12-14T04:08:15.307Z,58.70
2018-12-14T04:10:55.703Z,58.80
2018-12-14T04:18:51.040Z,58.70
2018-12-14T04:21:29.557Z,58.40
2018-12-14T04:24:03.607Z,58.40
2018-12-14T04:26:31.798Z,58.40
2018-12-14T04:29:12.123Z,58.50
2018-12-14T04:32:02.929Z,58.60
2018-12-14T04:34:42.870Z,58.60
2018-12-14T04:37:12.146Z,58.60
2018-12-14T04:39:47.799Z,58.40
2018-12-14T04:42:15.738Z,58.40
2018-12-14T04:50:26.945Z,58.30
2018-12-14T04:53:02.698Z,58.20
2018-12-14T04:55:41.155Z,58.30
2018-12-14T04:58:10.079Z,58.30
2018-12-14T05:00:44.019Z,57.90
2018-12-14T05:03:12.164Z,58.10
2018-12-14T05:05:41.568Z,58.00
2018-12-14T05:08:19.363Z,58.10
2018-12-14T05:11:06.177Z,58.10
2018-12-14T05:13:57.239Z,58.20
2018-12-14T05:16:30.573Z,58.10
2018-12-14T05:19:03.937Z,58.10
2018-12-14T05:26:57.127Z,58.20
2018-12-14T05:32:04.765Z,58.10
2018-12-14T05:34:39.101Z,58.00
2018-12-14T05:37:13.092Z,57.80
2018-12-14T05:39:46.601Z,57.80
2018-12-14T05:45:24.997Z,58.20
2018-12-14T05:47:52.686Z,58.40
2018-12-14T05:50:20.310Z,58.50
2018-12-14T05:52:47.956Z,58.60
2018-12-14T05:55:15.636Z,59.10
2018-12-14T05:57:43.212Z,59.00
2018-12-14T06:00:12.618Z,58.40
2018-12-14T06:02:40.265Z,58.50
2018-12-14T06:05:07.904Z,58.40
2018-12-14T06:07:35.590Z,58.30
2018-12-14T06:10:03.828Z,58.50
2018-12-14T06:12:31.609Z,58.30
2018-12-14T06:14:59.178Z,58.20
2018-12-14T06:17:26.766Z,58.00
2018-12-14T06:19:54.490Z,58.00
2018-12-14T06:22:22.057Z,58.00
2018-12-14T06:24:49.633Z,58.10
2018-12-14T06:27:17.346Z,57.80
2018-12-14T06:29:44.904Z,57.50
2018-12-14T06:32:12.665Z,57.40
2018-12-14T06:34:40.610Z,57.30
2018-12-14T06:37:08.527Z,57.40
2018-12-14T06:39:36.098Z,57.40
2018-12-14T06:42:04.212Z,57.20
2018-12-14T06:44:31.832Z,57.00
2018-12-14T06:46:59.423Z,57.00
2018-12-14T06:49:27.031Z,57.00
2018-12-14T06:51:54.625Z,56.70
2018-12-14T06:54:22.517Z,56.70
2018-12-14T06:56:50.101Z,56.90
2018-12-14T06:59:17.743Z,57.00
2018-12-14T07:01:45.417Z,56.90
2018-12-14T07:04:13.103Z,56.80
2018-12-14T07:06:40.761Z,56.90
2018-12-14T07:09:08.452Z,57.10
2018-12-14T07:11:37.966Z,57.00
2018-12-14T07:14:05.562Z,56.90
2018-12-14T07:16:33.212Z,56.80
2018-12-14T07:19:00.813Z,57.60
2018-12-14T07:21:28.445Z,57.20
2018-12-14T07:23:56.119Z,57.30
2018-12-14T07:26:23.736Z,57.40
2018-12-14T07:28:52.578Z,57.30
2018-12-14T07:31:20.202Z,57.20
2018-12-14T07:33:47.823Z,57.60
2018-12-14T07:36:16.388Z,57.10
2018-12-14T07:38:48.084Z,57.20
2018-12-14T07:41:14.302Z,57.20
2018-12-14T07:43:42.115Z,57.20
2018-12-14T07:46:09.683Z,57.20
2018-12-14T07:48:37.323Z,57.20
2018-12-14T07:51:04.913Z,57.20
2018-12-14T07:53:32.503Z,57.20
2018-12-14T07:56:00.227Z,57.00
2018-12-14T07:58:27.848Z,57.10
2018-12-14T08:00:55.600Z,57.10
2018-12-14T08:03:23.282Z,57.00
2018-12-14T08:05:50.953Z,57.10
2018-12-14T08:08:18.551Z,57.10
2018-12-14T08:10:46.135Z,57.00
2018-12-14T08:13:15.328Z,56.90
2018-12-14T08:15:42.989Z,56.90
2018-12-14T08:18:10.643Z,57.00
2018-12-14T08:20:38.271Z,56.80
2018-12-14T08:23:06.042Z,56.70
2018-12-14T08:25:33.670Z,56.70
2018-12-14T08:28:01.250Z,56.70
2018-12-14T08:30:29.024Z,56.80
2018-12-14T08:32:56.711Z,56.90
2018-12-14T08:35:24.314Z,57.00
2018-12-14T08:37:51.893Z,56.80
2018-12-14T08:40:20.483Z,57.10
2018-12-14T08:42:48.160Z,57.10
2018-12-14T08:45:16.228Z,57.00
2018-12-14T08:47:43.953Z,57.00
2018-12-14T08:50:11.551Z,56.80
2018-12-14T08:52:39.134Z,56.70
2018-12-14T08:55:06.897Z,56.70
2018-12-14T08:57:34.448Z,56.60
2018-12-14T09:00:02.099Z,56.50
2018-12-14T09:02:30.724Z,56.40
2018-12-14T09:04:58.313Z,56.60
2018-12-14T09:07:25.877Z,56.60
2018-12-14T09:09:53.475Z,57.20
2018-12-14T09:12:21.107Z,56.70
2018-12-14T09:14:48.646Z,56.50
2018-12-14T09:17:17.185Z,56.60
2018-12-14T09:19:44.764Z,56.60
2018-12-14T09:22:12.396Z,56.30
2018-12-14T09:24:39.989Z,56.40
2018-12-14T09:27:07.691Z,56.30
2018-12-14T09:29:35.315Z,56.40
2018-12-14T09:32:03.025Z,56.40
2018-12-14T09:34:31.761Z,56.60
2018-12-14T09:36:59.328Z,56.60
2018-12-14T09:39:26.871Z,56.50
2018-12-14T09:41:54.485Z,56.40
2018-12-14T09:44:22.068Z,56.40
2018-12-14T09:46:49.675Z,56.40
2018-12-14T09:49:17.237Z,56.30
2018-12-14T09:51:45.326Z,56.30
2018-12-14T09:54:12.994Z,56.30
2018-12-14T09:56:42.279Z,56.20
2018-12-14T09:59:09.920Z,56.00
2018-12-14T10:01:37.585Z,56.10
2018-12-14T10:04:05.282Z,56.00
2018-12-14T10:06:32.869Z,56.10
2018-12-14T10:09:00.450Z,56.00
2018-12-14T10:11:28.097Z,56.00
2018-12-14T10:14:00.763Z,55.50
2018-12-14T10:16:25.434Z,55.70
2018-12-14T10:18:53.385Z,56.00
2018-12-14T10:21:20.997Z,56.20
2018-12-14T10:23:48.622Z,56.30
2018-12-14T10:26:16.225Z,55.90
2018-12-14T10:28:43.838Z,56.30
2018-12-14T10:31:11.500Z,56.20
2018-12-14T10:33:39.133Z,56.50
2018-12-14T10:36:07.766Z,56.40
2018-12-14T10:38:35.437Z,55.90
2018-12-14T10:41:03.181Z,55.80
2018-12-14T10:43:30.777Z,55.70
2018-12-14T10:45:58.806Z,56.00
2018-12-14T10:48:27.578Z,56.10
2018-12-14T10:50:55.203Z,55.90
2018-12-14T10:53:22.874Z,56.00
2018-12-14T10:55:50.435Z,56.10
2018-12-14T10:58:18.033Z,55.70
2018-12-14T11:00:51.439Z,55.60
2018-12-14T11:03:19.031Z,55.30
2018-12-14T11:05:47.015Z,54.90
2018-12-14T11:08:14.639Z,54.80
2018-12-14T11:10:42.229Z,54.50
2018-12-14T11:13:09.822Z,54.70
2018-12-14T11:15:37.425Z,54.70
2018-12-14T11:18:05.125Z,55.00
2018-12-14T11:20:32.740Z,54.80
2018-12-14T11:23:00.371Z,54.50
2018-12-14T11:25:27.979Z,54.40
2018-12-14T11:27:56.179Z,54.80
2018-12-14T11:30:23.795Z,54.70
2018-12-14T11:32:51.449Z,54.50
2018-12-14T11:35:19.083Z,54.70
2018-12-14T11:37:46.665Z,54.70
2018-12-14T11:40:14.300Z,54.80
2018-12-14T11:42:41.919Z,55.10
2018-12-14T11:45:09.557Z,55.00
2018-12-14T11:47:37.266Z,55.10
2018-12-14T11:50:07.574Z,54.90
2018-12-14T11:52:35.237Z,54.90
2018-12-14T11:55:02.919Z,55.00
2018-12-14T11:57:30.540Z,54.80
2018-12-14T11:59:58.134Z,55.20
2018-12-14T12:02:25.734Z,55.40
2018-12-14T12:04:53.308Z,55.30
2018-12-14T12:07:20.844Z,55.40
2018-12-14T12:09:48.438Z,55.20
2018-12-14T12:12:16.036Z,55.60
2018-12-14T12:14:43.830Z,55.50
2018-12-14T12:17:11.468Z,55.40
2018-12-14T12:19:39.289Z,55.50
2018-12-14T12:22:07.011Z,55.60
2018-12-14T12:24:34.779Z,55.60
2018-12-14T12:27:02.541Z,55.60
2018-12-14T12:29:30.311Z,55.40
2018-12-14T12:31:58.064Z,55.20
2018-12-14T12:34:25.761Z,55.40
2018-12-14T12:36:53.467Z,55.40
2018-12-14T12:39:21.142Z,55.50
2018-12-14T12:41:48.929Z,55.50
2018-12-14T12:44:16.700Z,55.60
2018-12-14T12:46:44.461Z,55.80
2018-12-14T12:49:12.133Z,55.80
2018-12-14T12:51:39.982Z,56.10
2018-12-14T12:54:07.679Z,56.00
2018-12-14T12:56:35.727Z,55.60
2018-12-14T12:59:03.479Z,55.80
2018-12-14T13:01:31.482Z,56.20
2018-12-14T13:03:59.170Z,56.20
2018-12-14T13:06:26.917Z,56.20
2018-12-14T13:08:54.624Z,56.20
2018-12-14T13:11:22.315Z,56.20
2018-12-14T13:13:50.058Z,56.80
2018-12-14T13:16:17.798Z,56.20
2018-12-14T13:18:45.533Z,55.80
2018-12-14T13:21:13.277Z,55.90
2018-12-14T13:23:41.017Z,55.90
2018-12-14T13:26:08.750Z,56.20
2018-12-14T13:28:36.639Z,56.50
2018-12-14T13:31:04.349Z,56.10
2018-12-14T13:33:32.225Z,55.90
2018-12-14T13:36:00.014Z,56.00
2018-12-14T13:38:27.712Z,55.90
2018-12-14T13:40:55.485Z,56.10
2018-12-14T13:43:23.244Z,56.10
2018-12-14T13:45:51.003Z,56.00
2018-12-14T13:48:18.763Z,55.90
2018-12-14T13:50:47.551Z,56.10
2018-12-14T13:53:15.270Z,56.20
2018-12-14T13:55:43.042Z,56.30
2018-12-14T13:58:10.706Z,56.20
2018-12-14T14:00:38.497Z,56.10
2018-12-14T14:03:06.300Z,56.20
2018-12-14T14:05:34.223Z,56.10
2018-12-14T14:08:01.958Z,55.90
2018-12-14T14:10:29.623Z,56.10
2018-12-14T14:12:57.365Z,56.00
2018-12-14T14:15:39.025Z,56.10
2018-12-14T14:18:06.710Z,56.10
2018-12-14T14:20:39.450Z,56.20
2018-12-14T14:23:08.605Z,56.00
2018-12-14T14:25:36.529Z,56.00
2018-12-14T14:28:04.237Z,55.80
2018-12-14T14:30:31.943Z,55.80
2018-12-14T14:32:59.523Z,55.70
2018-12-14T14:35:27.120Z,55.80
2018-12-14T14:37:57.525Z,55.70
2018-12-14T14:40:24.745Z,55.70
2018-12-14T14:42:52.351Z,55.50
2018-12-14T14:45:19.979Z,55.40
2018-12-14T14:47:47.571Z,55.30
2018-12-14T14:50:17.184Z,55.20
2018-12-14T14:52:44.901Z,55.50
2018-12-14T14:55:12.525Z,55.30
2018-12-14T14:57:40.328Z,55.60
2018-12-14T15:00:08.490Z,55.70
2018-12-14T15:02:37.090Z,55.80
2018-12-14T15:05:05.484Z,55.80
2018-12-14T15:07:33.073Z,55.90
2018-12-14T15:10:00.762Z,56.00
2018-12-14T15:12:28.330Z,56.00
2018-12-14T15:14:55.953Z,56.10
2018-12-14T15:17:23.634Z,56.00
2018-12-14T15:19:51.262Z,56.00
2018-12-14T15:22:18.885Z,56.80
2018-12-14T15:24:46.569Z,56.30
2018-12-14T15:27:14.358Z,56.40
2018-12-14T15:29:42.050Z,56.40
2018-12-14T15:32:10.098Z,56.30
2018-12-14T15:34:37.817Z,56.30
2018-12-14T15:37:05.559Z,56.30
2018-12-14T15:39:33.378Z,56.00
2018-12-14T15:42:01.120Z,56.00
2018-12-14T15:44:28.911Z,56.50
2018-12-14T15:46:56.851Z,55.90
2018-12-14T15:49:24.754Z,55.90
2018-12-14T15:51:52.593Z,55.80
2018-12-14T15:54:20.322Z,55.80
2018-12-14T15:56:48.094Z,55.60
2018-12-14T15:59:15.893Z,55.40
2018-12-14T16:01:43.725Z,55.50
2018-12-14T16:04:11.433Z,55.60
2018-12-14T16:06:39.216Z,55.60
2018-12-14T16:09:08.009Z,55.70
2018-12-14T16:11:37.731Z,55.80
2018-12-14T16:14:05.792Z,56.00
2018-12-14T16:16:33.520Z,56.00
2018-12-14T16:19:01.328Z,56.00
2018-12-14T16:21:29.192Z,56.00
2018-12-14T16:23:56.929Z,56.00
2018-12-14T16:26:24.594Z,56.20
2018-12-14T16:28:52.305Z,56.10
2018-12-14T16:31:20.002Z,56.20
2018-12-14T16:33:47.652Z,56.40
2018-12-14T16:36:15.470Z,56.50
2018-12-14T16:38:43.199Z,56.60
2018-12-14T16:41:11.045Z,56.40
2018-12-14T16:43:38.769Z,56.30
2018-12-14T16:46:06.664Z,56.20
2018-12-14T16:48:34.381Z,56.00
2018-12-14T16:51:02.087Z,56.00
2018-12-14T16:53:31.923Z,55.90
2018-12-14T16:55:59.643Z,55.90
2018-12-14T16:58:27.330Z,55.90
2018-12-14T17:00:55.136Z,55.90
2018-12-14T17:03:22.957Z,55.80
2018-12-14T17:05:50.647Z,55.60
2018-12-14T17:08:18.483Z,55.50
2018-12-14T17:10:46.248Z,55.50
2018-12-14T17:13:13.952Z,55.50
2018-12-14T17:15:41.642Z,55.60
2018-12-14T17:18:09.400Z,55.50
2018-12-14T17:20:37.240Z,55.20
2018-12-14T17:23:04.904Z,55.10
2018-12-14T17:25:32.627Z,55.00
2018-12-14T17:28:00.383Z,55.20
2018-12-14T17:30:28.249Z,55.20
2018-12-14T17:32:55.979Z,55.10
2018-12-14T17:35:23.718Z,55.10
2018-12-14T17:37:51.546Z,55.10
2018-12-14T17:40:19.302Z,55.20
2018-12-14T17:42:49.996Z,55.20
2018-12-14T17:45:18.453Z,55.30
2018-12-14T17:47:46.188Z,55.40
2018-12-14T17:50:14.040Z,55.30
2018-12-14T17:52:42.074Z,55.30
2018-12-14T17:55:09.846Z,55.40
2018-12-14T17:57:37.777Z,55.50
2018-12-14T18:00:06.021Z,55.80
2018-12-14T18:02:33.866Z,56.30
2018-12-14T18:05:01.699Z,56.00
2018-12-14T18:07:29.701Z,56.10
2018-12-14T18:09:57.754Z,56.20
2018-12-14T18:12:25.699Z,56.30
2018-12-14T18:14:53.559Z,56.40
2018-12-14T18:17:21.497Z,56.50
2018-12-14T18:19:49.391Z,56.50
2018-12-14T18:22:17.679Z,56.40
2018-12-14T18:24:46.061Z,56.30
2018-12-14T18:27:14.069Z,56.30
2018-12-14T18:29:42.197Z,56.30
2018-12-14T18:32:10.009Z,56.40
2018-12-14T18:34:37.939Z,56.40
2018-12-14T18:37:05.819Z,56.10
2018-12-14T18:39:33.704Z,56.10
2018-12-14T18:42:01.663Z,56.70
2018-12-14T18:44:30.549Z,56.10
2018-12-14T18:46:58.708Z,56.00
2018-12-14T18:49:26.788Z,55.80
2018-12-14T18:51:54.899Z,55.70
2018-12-14T18:54:23.009Z,55.70
2018-12-14T18:56:51.030Z,55.70
2018-12-14T18:59:19.345Z,55.60
2018-12-14T19:01:47.524Z,55.60
2018-12-14T19:04:15.602Z,55.50
2018-12-14T19:06:43.757Z,55.50
2018-12-14T19:09:11.708Z,55.40
2018-12-14T19:11:40.614Z,55.20
2018-12-14T19:14:08.542Z,55.20
2018-12-14T19:16:36.997Z,55.30
2018-12-14T19:19:04.865Z,55.10
2018-12-14T19:21:32.885Z,55.10
2018-12-14T19:24:00.710Z,55.30
2018-12-14T19:26:28.728Z,55.60
2018-12-14T19:28:56.759Z,55.60
2018-12-14T19:31:24.709Z,55.70
2018-12-14T19:33:52.777Z,55.70
2018-12-14T19:36:21.622Z,55.80
2018-12-14T19:38:49.491Z,55.90
2018-12-14T19:41:17.551Z,56.10
2018-12-14T19:43:45.457Z,56.30
2018-12-14T19:46:13.291Z,56.40
2018-12-14T19:48:41.290Z,56.50
2018-12-14T19:51:09.162Z,56.60
2018-12-14T19:53:37.030Z,57.20
2018-12-14T19:56:04.957Z,56.50
2018-12-14T19:58:32.935Z,56.60
2018-12-14T20:01:00.889Z,56.80
2018-12-14T20:03:28.832Z,56.70
2018-12-14T20:05:56.711Z,56.50
2018-12-14T20:08:24.625Z,56.50
2018-12-14T20:10:52.619Z,56.40
2018-12-14T20:13:20.618Z,56.30
2018-12-14T20:15:48.556Z,56.40
2018-12-14T20:18:16.768Z,56.20
2018-12-14T20:20:44.778Z,56.30
2018-12-14T20:23:12.706Z,56.20
2018-12-14T20:25:40.640Z,56.30
2018-12-14T20:28:09.957Z,56.20
2018-12-14T20:30:40.084Z,56.40
2018-12-14T20:33:08.251Z,56.40
2018-12-14T20:35:36.254Z,56.40
2018-12-14T20:38:10.970Z,56.40
2018-12-14T20:40:38.957Z,56.50
2018-12-14T20:43:06.876Z,56.50
2018-12-14T20:45:34.806Z,56.40
2018-12-14T20:48:02.713Z,56.40
2018-12-14T20:50:30.637Z,57.00
2018-12-14T20:52:58.469Z,56.50
2018-12-14T20:55:26.897Z,56.50
2018-12-14T20:57:54.789Z,56.50
2018-12-14T21:00:22.685Z,56.50
2018-12-14T21:02:50.653Z,56.40
2018-12-14T21:05:18.718Z,56.50
2018-12-14T21:07:46.735Z,56.50
2018-12-14T21:10:15.635Z,56.60
2018-12-14T21:12:43.545Z,56.60
2018-12-14T21:15:11.640Z,56.50
2018-12-14T21:17:39.449Z,56.40
2018-12-14T21:20:08.827Z,56.60
2018-12-14T21:22:36.727Z,57.00
2018-12-14T21:25:05.365Z,57.00
2018-12-14T21:27:33.556Z,57.00
2018-12-14T21:30:02.013Z,57.00
2018-12-14T21:32:30.975Z,57.10
2018-12-14T21:34:58.784Z,57.10
2018-12-14T21:37:26.657Z,57.10
2018-12-14T21:39:54.533Z,57.10
2018-12-14T21:42:22.481Z,56.90
2018-12-14T21:44:50.447Z,56.70
2018-12-14T21:47:18.472Z,56.80
2018-12-14T21:49:46.348Z,56.80
2018-12-14T21:52:14.199Z,57.00
2018-12-14T21:54:42.033Z,56.80
2018-12-14T21:57:09.883Z,56.90
2018-12-14T21:59:37.711Z,57.00
2018-12-14T22:02:06.139Z,57.20
2018-12-14T22:04:34.355Z,57.00
2018-12-14T22:07:02.285Z,56.90
2018-12-14T22:09:30.285Z,57.10
2018-12-14T22:11:58.184Z,57.00
2018-12-14T22:14:26.088Z,57.10
2018-12-14T22:16:54.104Z,57.20
2018-12-14T22:19:22.014Z,57.50
2018-12-14T22:21:49.883Z,57.60
2018-12-14T22:24:17.740Z,57.60
2018-12-14T22:26:45.640Z,57.70
2018-12-14T22:29:13.819Z,57.80
2018-12-14T22:31:41.891Z,57.70
2018-12-14T22:34:09.997Z,57.90
2018-12-14T22:36:38.163Z,57.60
2018-12-14T22:39:07.171Z,57.60
2018-12-14T22:41:36.240Z,57.60
2018-12-14T22:44:04.271Z,57.70
2018-12-14T22:46:32.333Z,57.80
2018-12-14T22:49:00.162Z,57.80
2018-12-14T22:51:27.975Z,57.80
2018-12-14T22:53:55.929Z,57.50
2018-12-14T22:56:24.265Z,57.40
2018-12-14T22:58:53.154Z,57.30
2018-12-14T23:01:21.089Z,57.30
2018-12-14T23:03:48.898Z,57.30
2018-12-14T23:06:16.834Z,57.40
2018-12-14T23:08:45.784Z,57.40
2018-12-14T23:11:13.688Z,57.70
2018-12-14T23:13:41.401Z,57.70
2018-12-14T23:16:09.201Z,57.70
2018-12-14T23:18:37.390Z,57.80
2018-12-14T23:21:05.292Z,57.80
2018-12-14T23:23:33.116Z,57.80
2018-12-14T23:26:01.186Z,57.90
2018-12-14T23:28:29.018Z,58.00
2018-12-14T23:30:56.941Z,58.00
2018-12-14T23:33:24.794Z,58.00
2018-12-14T23:35:52.570Z,58.20
2018-12-14T23:38:20.329Z,58.30
2018-12-14T23:40:48.146Z,58.30
2018-12-14T23:43:15.985Z,58.40
2018-12-14T23:45:43.859Z,58.50
2018-12-14T23:48:11.630Z,58.60
2018-12-14T23:50:39.457Z,58.70
2018-12-14T23:53:07.413Z,58.70
2018-12-14T23:55:36.195Z,58.80
2018-12-14T23:58:04.041Z,58.80
